Beale Air Force Base
KBAB : now visible

Airfield :











YOU CAN JOIN US ON...

 
LOGIN :

Register | Disclaimer

   EN    FR    IT 

 









Legend :    VFR   Marginal VFR   IFR   Intensive IFR   Very Intensive IFR
Visi :
Ceiling :
>= 8 km
>= 3000ft
5 to 8 km
1000 to 3000 ft
1500m to 5 km
500 to 1000 ft
800 to 1500m
200 to 500 ft
< 800m
< 200 ft
Symbols :   Thunderstorms  Fog  Heavy snow  Heavy precipitations  Wind > 20 kt






- Airport Elevation : 113 ft


KBAB - Beale Air Force Base

CURRENT METAR :
  • 232158Z AUTO 15009KT 8SM OVC080 14/12 A2991 RMK AO2 RAE05DZB05E09RAB09E26DZB26E42RAB42E53DZB53E56DZB56E56 SLP131 P0001 T01430118 $

EXPIRED METARs :
  • 232143Z AUTO 16007KT 3SM -RA FEW065 OVC080 14/12 A2992 RMK AO2 RAE05DZB05E09RAB09E26DZB26E42RAB42 SLP135 $
  • 232058Z AUTO 17006KT 8SM -RA OVC070 15/11 A2993 RMK AO2 RAB38 SLP138 P0001 60001 T01450109 57009 $
  • 232038Z AUTO 18008KT 10SM -RA OVC070 16/09 A2994 RMK AO2 RAB38 SLP142 $
  • 231958Z AUTO 16009KT 10SM OVC075 16/10 A2994 RMK AO2 DZB13E21DZB21E21 SLP142 P0000 T01590100 $

TAF AMD TAF KBAB
Valid from the 23 at 00:00 until the 24 at 01:00 UTC


230030Z 2300/2401 15012KT 9999 SCT035 QNH2994INS
BECMG 2302/2303 15009KT 9999 SCT040 BKN150 QNH2994INS
BECMG 2312/2313 14009KT 9999 OVC065 QNH2995INS
BECMG 2318/2319 13010G15KT 9999 OVC050 QNH2994INS
TEMPO 2319/2322 6000 -RA TX19/2300Z TN12/2314Z LAST NO AMDS AFT 2300 NEXT 2612
KZOA FIR / North America



MET'MAP, your aeronautical weather chart ! - Copyright ORBIFLY December 2007 - Disclaimer

ORBIFLY MET'MAP TEAM :

Programming & Development : Alexandra Zaïnal
Concept & original design : Baudouin d'Aumeries
Assistance for programming : Marc-Olivier Méhu
Technical & hardware support : Manuel Goepfert

Contact : metmap@orbifly.com




SOURCES & CREDITS :

   NOAA       Earth
Advisory